createdAt,value
2023-01-26T08:47:28.916Z,-2.65
2023-01-26T08:51:52.955Z,-2.57
2023-01-26T08:55:22.380Z,-2.49
2023-01-26T08:58:35.498Z,-2.41
2023-01-26T09:03:05.355Z,-2.32
2023-01-26T09:06:38.947Z,-2.24
2023-01-26T09:10:16.426Z,-2.15
2023-01-26T09:15:33.866Z,-2.07
2023-01-26T09:18:02.776Z,-2.06
2023-01-26T09:20:31.867Z,-2.02
2023-01-26T09:23:01.472Z,-1.99
2023-01-26T09:25:30.399Z,-1.96
2023-01-26T09:27:59.411Z,-1.91
2023-01-26T09:30:46.681Z,-1.88
2023-01-26T09:33:18.318Z,-1.85
2023-01-26T09:47:11.754Z,-1.73
2023-01-26T10:04:59.039Z,-1.57
2023-01-26T10:17:06.881Z,-1.49
2023-01-26T10:28:36.783Z,-1.35
2023-01-26T10:39:23.827Z,-1.13
2023-01-26T10:43:10.527Z,-1.11
2023-01-26T10:45:45.610Z,-1.12
2023-01-26T10:48:24.537Z,-1.08
2023-01-26T10:50:54.071Z,-1.00
2023-01-26T10:53:30.067Z,-0.88
2023-01-26T10:56:12.734Z,-0.74
2023-01-26T10:58:45.502Z,-0.64
2023-01-26T11:01:16.059Z,-0.62
2023-01-26T11:04:15.785Z,-0.62
2023-01-26T11:06:45.301Z,-0.59
2023-01-26T11:09:22.985Z,-0.53
2023-01-26T11:11:56.666Z,-0.45
2023-01-26T11:14:25.690Z,-0.40
2023-01-26T11:16:57.252Z,-0.37
2023-01-26T11:19:44.882Z,-0.38
2023-01-26T11:22:22.991Z,-0.44
2023-01-26T11:25:14.304Z,-0.48
2023-01-26T11:28:01.550Z,-0.54
2023-01-26T11:30:35.740Z,-0.61
2023-01-26T11:33:18.417Z,-0.63
2023-01-26T11:36:26.037Z,-0.64
2023-01-26T11:39:24.680Z,-0.64
2023-01-26T11:42:32.044Z,-0.63
2023-01-26T11:45:10.905Z,-0.66
2023-01-26T11:47:59.002Z,-0.70
2023-01-26T11:50:36.668Z,-0.73
2023-01-26T11:53:31.860Z,-0.72
2023-01-26T11:56:24.236Z,-0.68
2023-01-26T11:59:14.145Z,-0.66
2023-01-26T16:02:22.827Z,-2.10
2023-01-26T16:04:50.870Z,-2.10
2023-01-26T16:07:18.545Z,-2.07
2023-01-26T16:09:48.076Z,-2.03
2023-01-26T16:12:31.289Z,-1.99
2023-01-26T16:14:59.652Z,-1.95
2023-01-26T16:17:28.029Z,-1.91
2023-01-26T16:19:55.758Z,-1.88
2023-01-26T16:22:23.312Z,-1.84
2023-01-26T16:24:50.903Z,-1.82
2023-01-26T16:27:20.817Z,-1.80
2023-01-26T16:29:48.183Z,-1.80
2023-01-26T16:32:28.156Z,-1.77
2023-01-26T16:34:56.127Z,-1.75
2023-01-26T16:37:23.738Z,-1.72
2023-01-26T16:39:51.231Z,-1.70
2023-01-26T16:42:18.989Z,-1.70
2023-01-26T16:44:46.945Z,-1.70
2023-01-26T16:47:14.449Z,-1.69
2023-01-26T16:49:45.319Z,-1.68
2023-01-26T16:52:13.001Z,-1.68
2023-01-26T16:54:40.408Z,-1.66
2023-01-26T16:57:08.532Z,-1.64
2023-01-26T16:59:36.147Z,-1.64
2023-01-26T17:02:03.613Z,-1.66
2023-01-26T17:04:31.456Z,-1.65
2023-01-26T17:06:59.429Z,-1.64
2023-01-26T17:09:26.899Z,-1.62
2023-01-26T17:11:54.675Z,-1.61
2023-01-26T17:14:24.176Z,-1.62
2023-01-26T17:16:51.741Z,-1.62
2023-01-26T17:19:19.137Z,-1.61
2023-01-26T17:21:46.721Z,-1.60
2023-01-26T17:24:14.391Z,-1.60
2023-01-26T17:26:41.842Z,-1.58
2023-01-26T17:29:09.797Z,-1.57
2023-01-26T17:31:37.346Z,-1.57
2023-01-26T17:34:04.831Z,-1.57
2023-01-26T17:36:32.399Z,-1.57
2023-01-26T17:39:00.328Z,-1.56
2023-01-26T17:41:28.862Z,-1.57
2023-01-26T17:43:56.506Z,-1.57
2023-01-26T17:46:23.885Z,-1.58
2023-01-26T17:48:51.370Z,-1.58
2023-01-26T17:51:20.234Z,-1.59
2023-01-26T17:53:49.405Z,-1.59
2023-01-26T17:56:19.062Z,-1.58
2023-01-26T17:58:48.535Z,-1.58
2023-01-26T18:01:16.285Z,-1.59
2023-01-26T18:03:44.072Z,-1.58
2023-01-26T18:06:12.366Z,-1.59
2023-01-26T18:08:40.418Z,-1.59
2023-01-26T18:11:10.470Z,-1.60
2023-01-26T18:13:38.309Z,-1.59
2023-01-26T18:16:06.976Z,-1.58
2023-01-26T18:18:35.207Z,-1.57
2023-01-26T18:21:19.629Z,-1.57
2023-01-26T18:23:47.287Z,-1.56
2023-01-26T18:26:15.074Z,-1.55
2023-01-26T18:28:42.745Z,-1.53
2023-01-26T18:31:29.400Z,-1.53
2023-01-26T18:33:58.620Z,-1.53
2023-01-26T18:36:26.447Z,-1.53
2023-01-26T18:38:56.222Z,-1.51
2023-01-26T18:41:26.297Z,-1.48
2023-01-26T18:43:54.717Z,-1.46
2023-01-26T18:46:22.255Z,-1.46
2023-01-26T18:48:52.290Z,-1.46
2023-01-26T18:51:21.750Z,-1.44
2023-01-26T18:53:49.672Z,-1.41
2023-01-26T18:56:17.623Z,-1.38
2023-01-26T18:58:45.055Z,-1.38
2023-01-26T19:01:14.072Z,-1.39
2023-01-26T19:03:46.849Z,-1.38
2023-01-26T19:06:20.520Z,-1.38
2023-01-26T19:08:58.064Z,-1.37
2023-01-26T19:11:29.057Z,-1.36
2023-01-26T19:13:57.035Z,-1.37
2023-01-26T19:16:24.596Z,-1.38
2023-01-26T19:18:52.098Z,-1.38
2023-01-26T19:21:21.579Z,-1.38
2023-01-26T19:23:50.607Z,-1.39
2023-01-26T19:26:19.689Z,-1.41
2023-01-26T19:28:50.402Z,-1.42
2023-01-26T19:31:21.170Z,-1.41
2023-01-26T19:33:54.000Z,-1.42
2023-01-26T19:36:21.748Z,-1.43
2023-01-26T19:38:53.420Z,-1.44
2023-01-26T19:41:22.032Z,-1.46
2023-01-26T19:43:50.164Z,-1.46
2023-01-26T19:46:18.420Z,-1.47
2023-01-26T21:58:07.811Z,-2.28
2023-01-26T22:00:38.259Z,-2.30
2023-01-26T22:03:07.190Z,-2.28
2023-01-26T22:05:36.823Z,-2.26
2023-01-26T22:08:08.606Z,-2.23
2023-01-26T22:10:37.982Z,-2.19
2023-01-26T22:13:07.690Z,-2.16
2023-01-26T22:15:36.677Z,-2.14
2023-01-26T22:18:07.498Z,-2.11
2023-01-26T22:20:37.562Z,-2.08
2023-01-26T22:23:06.556Z,-2.03
2023-01-26T22:25:39.308Z,-1.98
2023-01-26T22:28:08.585Z,-1.95
2023-01-26T22:30:37.693Z,-1.92
2023-01-26T22:33:06.918Z,-1.91
2023-01-26T22:35:38.652Z,-1.92
2023-01-26T22:38:08.286Z,-1.91
2023-01-26T22:40:38.068Z,-1.90
2023-01-26T22:43:09.329Z,-1.88
2023-01-26T22:45:38.402Z,-1.88
2023-01-26T22:48:07.270Z,-1.87
2023-01-26T22:50:36.424Z,-1.87
2023-01-26T22:53:05.300Z,-1.87
2023-01-26T22:55:34.176Z,-1.86
2023-01-26T22:58:03.230Z,-1.85
2023-01-26T23:00:34.306Z,-1.86
2023-01-26T23:03:03.387Z,-1.85
2023-01-26T23:05:36.545Z,-1.86
2023-01-26T23:08:05.843Z,-1.86
2023-01-26T23:10:34.806Z,-1.87
2023-01-26T23:13:03.981Z,-1.89
2023-01-26T23:15:33.605Z,-1.90
2023-01-26T23:18:03.317Z,-1.91
2023-01-26T23:20:33.191Z,-1.91
2023-01-26T23:23:02.304Z,-1.91
2023-01-26T23:25:49.932Z,-1.92
2023-01-26T23:28:32.852Z,-1.91
2023-01-26T23:31:02.005Z,-1.92
2023-01-26T23:33:31.846Z,-1.93
2023-01-26T23:36:01.085Z,-1.95
2023-01-26T23:38:30.511Z,-1.95
2023-01-26T23:41:00.948Z,-1.95
2023-01-26T23:43:30.066Z,-1.96
2023-01-26T23:45:59.286Z,-1.98
2023-01-26T23:48:28.348Z,-2.01
2023-01-26T23:51:01.163Z,-2.03
2023-01-26T23:53:31.152Z,-2.02
2023-01-26T23:56:00.954Z,-2.04
2023-01-26T23:58:29.937Z,-2.05
